sensor_id;sensor_type;location;lat;lon;timestamp;temperature;humidity
3017;DHT22;1518;52.408;13.060;2022-08-19T00:01:45;21.90;99.90
3017;DHT22;1518;52.408;13.060;2022-08-19T00:04:39;21.90;99.90
3017;DHT22;1518;52.408;13.060;2022-08-19T00:07:29;21.90;99.90
3017;DHT22;1518;52.408;13.060;2022-08-19T00:10:18;22.00;99.90
3017;DHT22;1518;52.408;13.060;2022-08-19T00:13:06;22.00;99.90
3017;DHT22;1518;52.408;13.060;2022-08-19T00:15:54;21.90;99.90
3017;DHT22;1518;52.408;13.060;2022-08-19T00:18:42;21.90;99.90
3017;DHT22;1518;52.408;13.060;2022-08-19T00:21:30;21.90;99.90
3017;DHT22;1518;52.408;13.060;2022-08-19T00:24:20;22.00;99.90
3017;DHT22;1518;52.408;13.060;2022-08-19T00:27:08;21.80;99.90
3017;DHT22;1518;52.408;13.060;2022-08-19T00:30:12;21.80;99.90
3017;DHT22;1518;52.408;13.060;2022-08-19T00:33:00;21.80;99.90
3017;DHT22;1518;52.408;13.060;2022-08-19T00:35:48;21.70;99.90
3017;DHT22;1518;52.408;13.060;2022-08-19T00:38:42;21.50;99.90
3017;DHT22;1518;52.408;13.060;2022-08-19T00:41:32;21.60;99.90
3017;DHT22;1518;52.408;13.060;2022-08-19T00:44:22;21.50;99.90
3017;DHT22;1518;52.408;13.060;2022-08-19T00:47:13;21.50;99.90
3017;DHT22;1518;52.408;13.060;2022-08-19T00:50:03;21.50;99.90
3017;DHT22;1518;52.408;13.060;2022-08-19T00:52:51;21.50;99.90
3017;DHT22;1518;52.408;13.060;2022-08-19T00:55:43;21.50;99.90
3017;DHT22;1518;52.408;13.060;2022-08-19T00:58:34;21.40;99.90
3017;DHT22;1518;52.408;13.060;2022-08-19T01:01:22;21.50;99.90
3017;DHT22;1518;52.408;13.060;2022-08-19T01:04:11;21.30;99.90
3017;DHT22;1518;52.408;13.060;2022-08-19T01:06:59;21.10;99.90
3017;DHT22;1518;52.408;13.060;2022-08-19T01:09:49;21.10;99.90
3017;DHT22;1518;52.408;13.060;2022-08-19T01:12:37;21.00;99.90
3017;DHT22;1518;52.408;13.060;2022-08-19T01:15:30;21.00;99.90
3017;DHT22;1518;52.408;13.060;2022-08-19T01:18:19;21.00;99.90
3017;DHT22;1518;52.408;13.060;2022-08-19T01:21:12;21.10;99.90
3017;DHT22;1518;52.408;13.060;2022-08-19T01:24:06;21.10;99.90
3017;DHT22;1518;52.408;13.060;2022-08-19T01:26:54;21.10;99.90
3017;DHT22;1518;52.408;13.060;2022-08-19T01:29:43;21.10;99.90
3017;DHT22;1518;52.408;13.060;2022-08-19T01:32:32;21.30;99.90
3017;DHT22;1518;52.408;13.060;2022-08-19T01:35:23;21.00;99.90
3017;DHT22;1518;52.408;13.060;2022-08-19T01:38:20;21.00;99.90
3017;DHT22;1518;52.408;13.060;2022-08-19T01:41:12;20.90;99.90
3017;DHT22;1518;52.408;13.060;2022-08-19T01:44:00;20.90;99.90
3017;DHT22;1518;52.408;13.060;2022-08-19T01:47:05;20.90;99.90
3017;DHT22;1518;52.408;13.060;2022-08-19T01:49:53;20.70;99.90
3017;DHT22;1518;52.408;13.060;2022-08-19T01:52:43;20.70;99.90
3017;DHT22;1518;52.408;13.060;2022-08-19T01:55:32;20.70;99.90
3017;DHT22;1518;52.408;13.060;2022-08-19T01:58:26;20.70;99.90
3017;DHT22;1518;52.408;13.060;2022-08-19T02:01:16;20.70;99.90
3017;DHT22;1518;52.408;13.060;2022-08-19T02:04:04;20.80;99.90
3017;DHT22;1518;52.408;13.060;2022-08-19T02:06:53;20.70;99.90
3017;DHT22;1518;52.408;13.060;2022-08-19T02:09:41;20.30;99.90
3017;DHT22;1518;52.408;13.060;2022-08-19T02:12:29;20.80;99.90
3017;DHT22;1518;52.408;13.060;2022-08-19T02:15:22;20.70;99.90
3017;DHT22;1518;52.408;13.060;2022-08-19T02:18:11;20.70;99.90
3017;DHT22;1518;52.408;13.060;2022-08-19T02:21:00;20.60;99.90
3017;DHT22;1518;52.408;13.060;2022-08-19T02:23:48;20.50;99.90
3017;DHT22;1518;52.408;13.060;2022-08-19T02:26:36;20.50;99.90
3017;DHT22;1518;52.408;13.060;2022-08-19T02:29:25;20.40;99.90
3017;DHT22;1518;52.408;13.060;2022-08-19T02:32:15;20.30;99.90
3017;DHT22;1518;52.408;13.060;2022-08-19T02:35:04;20.00;99.90
3017;DHT22;1518;52.408;13.060;2022-08-19T02:37:58;20.00;99.90
3017;DHT22;1518;52.408;13.060;2022-08-19T02:41:06;20.00;99.90
3017;DHT22;1518;52.408;13.060;2022-08-19T02:43:55;19.80;99.90
3017;DHT22;1518;52.408;13.060;2022-08-19T02:47:04;19.80;99.90
3017;DHT22;1518;52.408;13.060;2022-08-19T02:49:54;19.70;99.90
3017;DHT22;1518;52.408;13.060;2022-08-19T02:52:42;19.70;99.90
3017;DHT22;1518;52.408;13.060;2022-08-19T02:55:30;19.80;99.90
3017;DHT22;1518;52.408;13.060;2022-08-19T02:58:31;19.70;99.90
3017;DHT22;1518;52.408;13.060;2022-08-19T03:01:21;19.70;99.90
3017;DHT22;1518;52.408;13.060;2022-08-19T03:04:12;19.70;99.90
3017;DHT22;1518;52.408;13.060;2022-08-19T03:07:02;19.70;99.90
3017;DHT22;1518;52.408;13.060;2022-08-19T03:09:57;19.70;99.90
3017;DHT22;1518;52.408;13.060;2022-08-19T03:12:45;19.60;99.90
3017;DHT22;1518;52.408;13.060;2022-08-19T03:15:33;19.70;99.90
3017;DHT22;1518;52.408;13.060;2022-08-19T03:18:21;19.70;99.90
3017;DHT22;1518;52.408;13.060;2022-08-19T03:21:09;19.70;99.90
3017;DHT22;1518;52.408;13.060;2022-08-19T03:24:06;19.70;99.90
3017;DHT22;1518;52.408;13.060;2022-08-19T03:26:55;19.70;99.90
3017;DHT22;1518;52.408;13.060;2022-08-19T03:29:44;19.70;99.90
3017;DHT22;1518;52.408;13.060;2022-08-19T03:32:32;19.60;99.90
3017;DHT22;1518;52.408;13.060;2022-08-19T03:35:20;19.70;99.90
3017;DHT22;1518;52.408;13.060;2022-08-19T03:38:08;19.70;99.90
3017;DHT22;1518;52.408;13.060;2022-08-19T03:40:58;19.70;99.90
3017;DHT22;1518;52.408;13.060;2022-08-19T03:43:50;19.70;99.90
3017;DHT22;1518;52.408;13.060;2022-08-19T03:46:38;19.70;99.90
3017;DHT22;1518;52.408;13.060;2022-08-19T03:49:32;19.70;99.90
3017;DHT22;1518;52.408;13.060;2022-08-19T03:52:22;19.70;99.90
3017;DHT22;1518;52.408;13.060;2022-08-19T03:55:10;19.60;99.90
3017;DHT22;1518;52.408;13.060;2022-08-19T03:58:00;19.70;99.90
3017;DHT22;1518;52.408;13.060;2022-08-19T04:00:48;19.60;99.90
3017;DHT22;1518;52.408;13.060;2022-08-19T04:03:37;19.60;99.90
3017;DHT22;1518;52.408;13.060;2022-08-19T04:06:28;19.60;99.90
3017;DHT22;1518;52.408;13.060;2022-08-19T04:09:17;19.60;99.90
3017;DHT22;1518;52.408;13.060;2022-08-19T04:12:07;19.60;99.90
3017;DHT22;1518;52.408;13.060;2022-08-19T04:14:57;19.70;99.90
3017;DHT22;1518;52.408;13.060;2022-08-19T04:17:46;19.80;99.90
3017;DHT22;1518;52.408;13.060;2022-08-19T04:20:39;19.80;99.90
3017;DHT22;1518;52.408;13.060;2022-08-19T04:23:27;19.90;99.90
3017;DHT22;1518;52.408;13.060;2022-08-19T04:26:18;20.00;99.90
3017;DHT22;1518;52.408;13.060;2022-08-19T04:29:11;20.00;99.90
3017;DHT22;1518;52.408;13.060;2022-08-19T04:32:01;20.00;99.90
3017;DHT22;1518;52.408;13.060;2022-08-19T04:34:55;20.00;99.90
3017;DHT22;1518;52.408;13.060;2022-08-19T04:38:02;20.10;99.90
3017;DHT22;1518;52.408;13.060;2022-08-19T04:40:51;20.00;99.90
3017;DHT22;1518;52.408;13.060;2022-08-19T04:43:57;20.10;99.90
3017;DHT22;1518;52.408;13.060;2022-08-19T04:46:50;20.10;99.90
3017;DHT22;1518;52.408;13.060;2022-08-19T04:49:40;20.10;99.90
3017;DHT22;1518;52.408;13.060;2022-08-19T04:52:28;20.10;99.90
3017;DHT22;1518;52.408;13.060;2022-08-19T04:55:18;20.20;99.90
3017;DHT22;1518;52.408;13.060;2022-08-19T04:58:06;20.20;99.90
3017;DHT22;1518;52.408;13.060;2022-08-19T05:00:54;20.30;99.90
3017;DHT22;1518;52.408;13.060;2022-08-19T05:03:42;20.30;99.90
3017;DHT22;1518;52.408;13.060;2022-08-19T05:06:33;20.40;99.90
3017;DHT22;1518;52.408;13.060;2022-08-19T05:09:21;20.50;99.90
3017;DHT22;1518;52.408;13.060;2022-08-19T05:12:10;20.60;99.90
3017;DHT22;1518;52.408;13.060;2022-08-19T05:14:58;20.60;99.90
3017;DHT22;1518;52.408;13.060;2022-08-19T05:17:47;20.70;99.90
3017;DHT22;1518;52.408;13.060;2022-08-19T05:20:49;20.80;99.90
3017;DHT22;1518;52.408;13.060;2022-08-19T05:23:56;20.80;99.90
3017;DHT22;1518;52.408;13.060;2022-08-19T05:26:46;20.90;99.90
3017;DHT22;1518;52.408;13.060;2022-08-19T05:29:34;21.00;99.90
3017;DHT22;1518;52.408;13.060;2022-08-19T05:32:23;21.00;99.90
3017;DHT22;1518;52.408;13.060;2022-08-19T05:35:11;21.10;99.90
3017;DHT22;1518;52.408;13.060;2022-08-19T05:37:59;21.10;99.90
3017;DHT22;1518;52.408;13.060;2022-08-19T05:40:48;21.10;99.90
3017;DHT22;1518;52.408;13.060;2022-08-19T05:43:37;21.10;99.90
3017;DHT22;1518;52.408;13.060;2022-08-19T05:46:25;21.10;99.90
3017;DHT22;1518;52.408;13.060;2022-08-19T05:49:15;21.20;99.90
3017;DHT22;1518;52.408;13.060;2022-08-19T05:52:05;21.30;99.90
3017;DHT22;1518;52.408;13.060;2022-08-19T05:54:53;21.30;99.90
3017;DHT22;1518;52.408;13.060;2022-08-19T05:57:44;21.50;99.90
3017;DHT22;1518;52.408;13.060;2022-08-19T06:00:32;21.70;99.90
3017;DHT22;1518;52.408;13.060;2022-08-19T06:03:20;21.90;99.90
3017;DHT22;1518;52.408;13.060;2022-08-19T06:06:10;22.00;99.90
3017;DHT22;1518;52.408;13.060;2022-08-19T06:08:58;22.00;99.90
3017;DHT22;1518;52.408;13.060;2022-08-19T06:11:48;22.00;99.90
3017;DHT22;1518;52.408;13.060;2022-08-19T06:14:42;22.10;99.90
3017;DHT22;1518;52.408;13.060;2022-08-19T06:17:32;22.30;99.90
3017;DHT22;1518;52.408;13.060;2022-08-19T06:20:21;22.50;99.90
3017;DHT22;1518;52.408;13.060;2022-08-19T06:23:29;22.40;99.90
3017;DHT22;1518;52.408;13.060;2022-08-19T06:26:20;22.50;99.90
3017;DHT22;1518;52.408;13.060;2022-08-19T06:29:09;22.50;99.90
3017;DHT22;1518;52.408;13.060;2022-08-19T06:32:11;22.50;99.90
3017;DHT22;1518;52.408;13.060;2022-08-19T06:34:59;22.60;99.90
3017;DHT22;1518;52.408;13.060;2022-08-19T06:37:47;22.60;99.90
3017;DHT22;1518;52.408;13.060;2022-08-19T06:40:35;22.70;99.90
3017;DHT22;1518;52.408;13.060;2022-08-19T06:43:24;22.90;99.90
3017;DHT22;1518;52.408;13.060;2022-08-19T06:46:16;23.00;99.90
3017;DHT22;1518;52.408;13.060;2022-08-19T06:49:07;23.10;99.90
3017;DHT22;1518;52.408;13.060;2022-08-19T06:51:57;23.20;99.90
3017;DHT22;1518;52.408;13.060;2022-08-19T06:54:47;23.20;99.90
3017;DHT22;1518;52.408;13.060;2022-08-19T06:57:42;23.10;99.90
3017;DHT22;1518;52.408;13.060;2022-08-19T07:00:33;23.10;99.90
3017;DHT22;1518;52.408;13.060;2022-08-19T07:03:21;23.10;99.90
3017;DHT22;1518;52.408;13.060;2022-08-19T07:06:13;23.10;99.90
3017;DHT22;1518;52.408;13.060;2022-08-19T07:09:24;23.30;99.90
3017;DHT22;1518;52.408;13.060;2022-08-19T07:12:13;23.30;99.90
3017;DHT22;1518;52.408;13.060;2022-08-19T07:15:03;23.50;99.90
3017;DHT22;1518;52.408;13.060;2022-08-19T07:17:54;23.70;99.90
3017;DHT22;1518;52.408;13.060;2022-08-19T07:20:43;23.60;99.90
3017;DHT22;1518;52.408;13.060;2022-08-19T07:23:34;23.40;99.90
3017;DHT22;1518;52.408;13.060;2022-08-19T07:26:28;23.30;99.90
3017;DHT22;1518;52.408;13.060;2022-08-19T07:29:30;23.30;99.90
3017;DHT22;1518;52.408;13.060;2022-08-19T07:32:21;23.40;99.90
3017;DHT22;1518;52.408;13.060;2022-08-19T07:35:09;23.40;99.90
3017;DHT22;1518;52.408;13.060;2022-08-19T07:37:58;23.30;99.90
3017;DHT22;1518;52.408;13.060;2022-08-19T07:40:50;23.30;99.90
3017;DHT22;1518;52.408;13.060;2022-08-19T07:43:39;23.40;99.90
3017;DHT22;1518;52.408;13.060;2022-08-19T07:46:27;23.30;99.90
3017;DHT22;1518;52.408;13.060;2022-08-19T07:49:18;23.30;99.90
3017;DHT22;1518;52.408;13.060;2022-08-19T07:52:08;23.50;99.90
3017;DHT22;1518;52.408;13.060;2022-08-19T07:54:56;23.70;99.90
3017;DHT22;1518;52.408;13.060;2022-08-19T07:57:48;23.80;99.90
3017;DHT22;1518;52.408;13.060;2022-08-19T08:00:36;24.00;99.90
3017;DHT22;1518;52.408;13.060;2022-08-19T08:03:25;24.00;99.90
3017;DHT22;1518;52.408;13.060;2022-08-19T08:06:28;23.90;99.90
3017;DHT22;1518;52.408;13.060;2022-08-19T08:09:35;24.00;99.90
3017;DHT22;1518;52.408;13.060;2022-08-19T08:12:28;23.90;99.90
3017;DHT22;1518;52.408;13.060;2022-08-19T08:18:12;24.00;99.90
3017;DHT22;1518;52.408;13.060;2022-08-19T08:21:00;24.10;99.90
3017;DHT22;1518;52.408;13.060;2022-08-19T08:23:48;24.10;99.90
3017;DHT22;1518;52.408;13.060;2022-08-19T08:26:42;24.30;99.90
3017;DHT22;1518;52.408;13.060;2022-08-19T08:29:33;24.50;99.90
3017;DHT22;1518;52.408;13.060;2022-08-19T08:32:22;24.70;99.90
3017;DHT22;1518;52.408;13.060;2022-08-19T08:35:14;24.60;99.90
3017;DHT22;1518;52.408;13.060;2022-08-19T08:38:03;24.60;99.90
3017;DHT22;1518;52.408;13.060;2022-08-19T08:40:55;24.50;99.90
3017;DHT22;1518;52.408;13.060;2022-08-19T08:43:47;24.50;99.90
3017;DHT22;1518;52.408;13.060;2022-08-19T08:46:41;24.60;99.90
3017;DHT22;1518;52.408;13.060;2022-08-19T08:49:41;24.40;99.90
3017;DHT22;1518;52.408;13.060;2022-08-19T08:52:35;24.40;99.90
3017;DHT22;1518;52.408;13.060;2022-08-19T08:55:27;24.20;99.90
3017;DHT22;1518;52.408;13.060;2022-08-19T08:58:37;24.00;99.90
3017;DHT22;1518;52.408;13.060;2022-08-19T09:01:28;24.10;99.90
3017;DHT22;1518;52.408;13.060;2022-08-19T09:04:17;24.40;99.90
3017;DHT22;1518;52.408;13.060;2022-08-19T09:07:18;24.60;99.90
3017;DHT22;1518;52.408;13.060;2022-08-19T09:10:29;24.50;99.90
3017;DHT22;1518;52.408;13.060;2022-08-19T09:13:25;24.40;99.90
3017;DHT22;1518;52.408;13.060;2022-08-19T09:16:23;24.30;99.90
3017;DHT22;1518;52.408;13.060;2022-08-19T09:19:14;24.20;99.90
3017;DHT22;1518;52.408;13.060;2022-08-19T09:22:08;24.10;99.90
3017;DHT22;1518;52.408;13.060;2022-08-19T09:24:56;23.80;99.90
3017;DHT22;1518;52.408;13.060;2022-08-19T09:27:46;23.60;99.90
3017;DHT22;1518;52.408;13.060;2022-08-19T09:30:39;23.60;99.90
3017;DHT22;1518;52.408;13.060;2022-08-19T09:33:28;23.70;99.90
3017;DHT22;1518;52.408;13.060;2022-08-19T09:36:18;23.60;99.90
3017;DHT22;1518;52.408;13.060;2022-08-19T09:39:21;23.60;99.90
3017;DHT22;1518;52.408;13.060;2022-08-19T09:42:09;23.40;99.90
3017;DHT22;1518;52.408;13.060;2022-08-19T09:45:08;23.30;99.90
3017;DHT22;1518;52.408;13.060;2022-08-19T09:47:57;23.30;99.90
3017;DHT22;1518;52.408;13.060;2022-08-19T09:50:45;23.20;99.90
3017;DHT22;1518;52.408;13.060;2022-08-19T09:53:38;23.10;99.90
3017;DHT22;1518;52.408;13.060;2022-08-19T09:56:27;23.00;99.90
3017;DHT22;1518;52.408;13.060;2022-08-19T09:59:16;23.00;99.90
3017;DHT22;1518;52.408;13.060;2022-08-19T10:02:06;23.10;99.90
3017;DHT22;1518;52.408;13.060;2022-08-19T10:04:57;23.20;99.90
3017;DHT22;1518;52.408;13.060;2022-08-19T10:08:12;23.20;99.90
3017;DHT22;1518;52.408;13.060;2022-08-19T10:11:01;23.10;99.90
3017;DHT22;1518;52.408;13.060;2022-08-19T10:14:10;23.00;99.90
3017;DHT22;1518;52.408;13.060;2022-08-19T10:16:58;22.90;99.90
3017;DHT22;1518;52.408;13.060;2022-08-19T10:20:00;22.80;99.90
3017;DHT22;1518;52.408;13.060;2022-08-19T10:22:49;22.90;99.90
3017;DHT22;1518;52.408;13.060;2022-08-19T10:25:39;22.90;99.90
3017;DHT22;1518;52.408;13.060;2022-08-19T10:28:29;23.00;99.90
3017;DHT22;1518;52.408;13.060;2022-08-19T10:31:20;23.10;99.90
3017;DHT22;1518;52.408;13.060;2022-08-19T10:34:30;23.10;99.90
3017;DHT22;1518;52.408;13.060;2022-08-19T10:37:20;22.90;99.90
3017;DHT22;1518;52.408;13.060;2022-08-19T10:40:15;22.80;99.90
3017;DHT22;1518;52.408;13.060;2022-08-19T10:43:03;22.80;99.90
3017;DHT22;1518;52.408;13.060;2022-08-19T10:45:52;22.60;99.90
3017;DHT22;1518;52.408;13.060;2022-08-19T10:48:44;22.60;99.90
3017;DHT22;1518;52.408;13.060;2022-08-19T10:51:32;22.60;99.90
3017;DHT22;1518;52.408;13.060;2022-08-19T10:54:40;22.70;99.90
3017;DHT22;1518;52.408;13.060;2022-08-19T10:57:51;22.70;99.90
3017;DHT22;1518;52.408;13.060;2022-08-19T11:00:51;22.70;99.90
3017;DHT22;1518;52.408;13.060;2022-08-19T11:03:41;22.60;99.90
3017;DHT22;1518;52.408;13.060;2022-08-19T11:06:30;22.60;99.90
3017;DHT22;1518;52.408;13.060;2022-08-19T11:09:21;22.50;99.90
3017;DHT22;1518;52.408;13.060;2022-08-19T11:12:21;22.50;99.90
3017;DHT22;1518;52.408;13.060;2022-08-19T11:15:09;22.60;99.90
3017;DHT22;1518;52.408;13.060;2022-08-19T11:17:58;22.50;99.90
3017;DHT22;1518;52.408;13.060;2022-08-19T11:20:46;22.50;99.90
3017;DHT22;1518;52.408;13.060;2022-08-19T11:23:35;22.50;99.90
3017;DHT22;1518;52.408;13.060;2022-08-19T11:26:23;22.50;99.90
3017;DHT22;1518;52.408;13.060;2022-08-19T11:29:13;22.50;99.90
3017;DHT22;1518;52.408;13.060;2022-08-19T11:32:04;22.50;99.90
3017;DHT22;1518;52.408;13.060;2022-08-19T11:34:52;22.50;99.90
3017;DHT22;1518;52.408;13.060;2022-08-19T11:37:41;22.50;99.90
3017;DHT22;1518;52.408;13.060;2022-08-19T11:40:29;22.40;99.90
3017;DHT22;1518;52.408;13.060;2022-08-19T11:43:17;22.40;99.90
3017;DHT22;1518;52.408;13.060;2022-08-19T11:46:08;22.30;99.90
3017;DHT22;1518;52.408;13.060;2022-08-19T11:48:58;22.30;99.90
3017;DHT22;1518;52.408;13.060;2022-08-19T11:51:47;22.30;99.90
3017;DHT22;1518;52.408;13.060;2022-08-19T11:54:37;22.30;99.90
3017;DHT22;1518;52.408;13.060;2022-08-19T11:57:25;22.40;99.90
3017;DHT22;1518;52.408;13.060;2022-08-19T12:00:14;22.50;99.90
3017;DHT22;1518;52.408;13.060;2022-08-19T12:03:03;22.50;99.90
3017;DHT22;1518;52.408;13.060;2022-08-19T12:05:52;22.50;99.90
3017;DHT22;1518;52.408;13.060;2022-08-19T12:08:41;22.50;99.90
3017;DHT22;1518;52.408;13.060;2022-08-19T12:11:29;22.60;99.90
3017;DHT22;1518;52.408;13.060;2022-08-19T12:14:20;22.60;99.90
3017;DHT22;1518;52.408;13.060;2022-08-19T12:17:08;22.50;99.90
3017;DHT22;1518;52.408;13.060;2022-08-19T12:20:01;22.60;99.90
3017;DHT22;1518;52.408;13.060;2022-08-19T12:22:49;22.70;99.90
3017;DHT22;1518;52.408;13.060;2022-08-19T12:25:44;22.60;99.90
3017;DHT22;1518;52.408;13.060;2022-08-19T12:28:35;22.60;99.90
3017;DHT22;1518;52.408;13.060;2022-08-19T12:31:23;22.50;99.90
3017;DHT22;1518;52.408;13.060;2022-08-19T12:34:11;22.60;99.90
3017;DHT22;1518;52.408;13.060;2022-08-19T12:37:03;22.60;99.90
3017;DHT22;1518;52.408;13.060;2022-08-19T12:39:52;22.50;99.90
3017;DHT22;1518;52.408;13.060;2022-08-19T12:42:41;22.50;99.90
3017;DHT22;1518;52.408;13.060;2022-08-19T12:45:29;22.40;99.90
3017;DHT22;1518;52.408;13.060;2022-08-19T12:48:17;22.40;99.90
3017;DHT22;1518;52.408;13.060;2022-08-19T12:51:20;22.50;99.90
3017;DHT22;1518;52.408;13.060;2022-08-19T12:54:10;22.70;99.90
3017;DHT22;1518;52.408;13.060;2022-08-19T12:56:58;22.90;99.90
3017;DHT22;1518;52.408;13.060;2022-08-19T12:59:47;23.30;99.90
3017;DHT22;1518;52.408;13.060;2022-08-19T13:02:35;23.40;99.90
3017;DHT22;1518;52.408;13.060;2022-08-19T13:05:27;23.40;99.90
3017;DHT22;1518;52.408;13.060;2022-08-19T13:08:15;23.40;99.90
3017;DHT22;1518;52.408;13.060;2022-08-19T13:11:12;23.30;99.90
3017;DHT22;1518;52.408;13.060;2022-08-19T13:14:02;23.10;99.90
3017;DHT22;1518;52.408;13.060;2022-08-19T13:16:50;23.00;99.90
3017;DHT22;1518;52.408;13.060;2022-08-19T13:19:38;22.90;99.90
3017;DHT22;1518;52.408;13.060;2022-08-19T13:22:27;22.80;99.90
3017;DHT22;1518;52.408;13.060;2022-08-19T13:25:16;22.80;99.90
3017;DHT22;1518;52.408;13.060;2022-08-19T13:28:07;22.70;99.90
3017;DHT22;1518;52.408;13.060;2022-08-19T13:30:58;22.70;99.90
3017;DHT22;1518;52.408;13.060;2022-08-19T13:34:05;22.60;99.90
3017;DHT22;1518;52.408;13.060;2022-08-19T13:36:53;22.60;99.90
3017;DHT22;1518;52.408;13.060;2022-08-19T13:39:42;22.60;99.90
3017;DHT22;1518;52.408;13.060;2022-08-19T13:42:31;22.60;99.90
3017;DHT22;1518;52.408;13.060;2022-08-19T13:45:23;22.50;99.90
3017;DHT22;1518;52.408;13.060;2022-08-19T13:48:11;22.50;99.90
3017;DHT22;1518;52.408;13.060;2022-08-19T13:50:59;22.50;99.90
3017;DHT22;1518;52.408;13.060;2022-08-19T13:53:47;22.40;99.90
3017;DHT22;1518;52.408;13.060;2022-08-19T13:56:40;22.40;99.90
3017;DHT22;1518;52.408;13.060;2022-08-19T13:59:28;22.40;99.90
3017;DHT22;1518;52.408;13.060;2022-08-19T14:02:18;22.40;99.90
3017;DHT22;1518;52.408;13.060;2022-08-19T14:05:08;22.50;99.90
3017;DHT22;1518;52.408;13.060;2022-08-19T14:07:57;22.40;99.90
3017;DHT22;1518;52.408;13.060;2022-08-19T14:10:46;22.50;99.90
3017;DHT22;1518;52.408;13.060;2022-08-19T14:13:35;22.50;99.90
3017;DHT22;1518;52.408;13.060;2022-08-19T14:16:25;22.50;99.90
3017;DHT22;1518;52.408;13.060;2022-08-19T14:19:15;22.50;99.90
3017;DHT22;1518;52.408;13.060;2022-08-19T14:22:04;22.50;99.90
3017;DHT22;1518;52.408;13.060;2022-08-19T14:24:52;22.50;99.90
3017;DHT22;1518;52.408;13.060;2022-08-19T14:27:41;22.40;99.90
3017;DHT22;1518;52.408;13.060;2022-08-19T14:30:31;22.40;99.90
3017;DHT22;1518;52.408;13.060;2022-08-19T14:33:20;22.30;99.90
3017;DHT22;1518;52.408;13.060;2022-08-19T14:36:15;22.30;99.90
3017;DHT22;1518;52.408;13.060;2022-08-19T14:39:04;22.20;99.90
3017;DHT22;1518;52.408;13.060;2022-08-19T14:41:52;22.30;99.90
3017;DHT22;1518;52.408;13.060;2022-08-19T14:44:41;22.30;99.90
3017;DHT22;1518;52.408;13.060;2022-08-19T14:47:29;22.40;99.90
3017;DHT22;1518;52.408;13.060;2022-08-19T14:50:19;22.40;99.90
3017;DHT22;1518;52.408;13.060;2022-08-19T14:53:08;22.40;99.90
3017;DHT22;1518;52.408;13.060;2022-08-19T14:55:59;22.20;99.90
3017;DHT22;1518;52.408;13.060;2022-08-19T14:58:48;22.20;99.90
3017;DHT22;1518;52.408;13.060;2022-08-19T15:01:38;22.20;99.90
3017;DHT22;1518;52.408;13.060;2022-08-19T15:04:26;22.10;99.90
3017;DHT22;1518;52.408;13.060;2022-08-19T15:07:19;22.10;99.90
3017;DHT22;1518;52.408;13.060;2022-08-19T15:10:10;22.10;99.90
3017;DHT22;1518;52.408;13.060;2022-08-19T15:12:59;22.10;99.90
3017;DHT22;1518;52.408;13.060;2022-08-19T15:15:47;22.10;99.90
3017;DHT22;1518;52.408;13.060;2022-08-19T15:18:35;22.00;99.90
3017;DHT22;1518;52.408;13.060;2022-08-19T15:21:25;22.00;99.90
3017;DHT22;1518;52.408;13.060;2022-08-19T15:24:14;22.00;99.90
3017;DHT22;1518;52.408;13.060;2022-08-19T15:27:05;22.00;99.90
3017;DHT22;1518;52.408;13.060;2022-08-19T15:29:54;21.90;99.90
3017;DHT22;1518;52.408;13.060;2022-08-19T15:32:47;22.00;99.90
3017;DHT22;1518;52.408;13.060;2022-08-19T15:35:35;22.00;99.90
3017;DHT22;1518;52.408;13.060;2022-08-19T15:38:26;22.00;99.90
3017;DHT22;1518;52.408;13.060;2022-08-19T15:41:16;22.00;99.90
3017;DHT22;1518;52.408;13.060;2022-08-19T15:44:14;22.00;99.90
3017;DHT22;1518;52.408;13.060;2022-08-19T15:47:04;22.00;99.90
3017;DHT22;1518;52.408;13.060;2022-08-19T15:49:52;22.00;99.90
3017;DHT22;1518;52.408;13.060;2022-08-19T15:52:47;21.90;99.90
3017;DHT22;1518;52.408;13.060;2022-08-19T15:55:41;21.90;99.90
3017;DHT22;1518;52.408;13.060;2022-08-19T15:58:30;21.80;99.90
3017;DHT22;1518;52.408;13.060;2022-08-19T16:01:37;21.80;99.90
3017;DHT22;1518;52.408;13.060;2022-08-19T16:04:42;21.70;99.90
3017;DHT22;1518;52.408;13.060;2022-08-19T16:07:48;21.70;99.90
3017;DHT22;1518;52.408;13.060;2022-08-19T16:10:37;21.80;99.90
3017;DHT22;1518;52.408;13.060;2022-08-19T16:13:25;21.80;99.90
3017;DHT22;1518;52.408;13.060;2022-08-19T16:16:13;21.90;99.90
3017;DHT22;1518;52.408;13.060;2022-08-19T16:19:04;22.00;99.90
3017;DHT22;1518;52.408;13.060;2022-08-19T16:21:57;22.00;99.90
3017;DHT22;1518;52.408;13.060;2022-08-19T16:24:45;22.00;99.90
3017;DHT22;1518;52.408;13.060;2022-08-19T16:27:34;21.90;99.90
3017;DHT22;1518;52.408;13.060;2022-08-19T16:30:22;21.80;99.90
3017;DHT22;1518;52.408;13.060;2022-08-19T16:33:10;21.70;99.90
3017;DHT22;1518;52.408;13.060;2022-08-19T16:36:10;21.70;99.90
3017;DHT22;1518;52.408;13.060;2022-08-19T16:38:58;21.70;99.90
3017;DHT22;1518;52.408;13.060;2022-08-19T16:41:46;21.60;99.90
3017;DHT22;1518;52.408;13.060;2022-08-19T16:44:38;21.60;99.90
3017;DHT22;1518;52.408;13.060;2022-08-19T16:47:26;21.50;99.90
3017;DHT22;1518;52.408;13.060;2022-08-19T16:50:15;21.50;99.90
3017;DHT22;1518;52.408;13.060;2022-08-19T16:53:23;21.50;99.90
3017;DHT22;1518;52.408;13.060;2022-08-19T16:56:15;21.50;99.90
3017;DHT22;1518;52.408;13.060;2022-08-19T16:59:03;21.40;99.90
3017;DHT22;1518;52.408;13.060;2022-08-19T17:01:52;21.50;99.90
3017;DHT22;1518;52.408;13.060;2022-08-19T17:04:40;21.40;99.90
3017;DHT22;1518;52.408;13.060;2022-08-19T17:07:29;21.40;99.90
3017;DHT22;1518;52.408;13.060;2022-08-19T17:10:20;21.40;99.90
3017;DHT22;1518;52.408;13.060;2022-08-19T17:13:08;21.40;99.90
3017;DHT22;1518;52.408;13.060;2022-08-19T17:15:57;21.40;99.90
3017;DHT22;1518;52.408;13.060;2022-08-19T17:18:45;21.40;99.90
3017;DHT22;1518;52.408;13.060;2022-08-19T17:21:38;21.40;99.90
3017;DHT22;1518;52.408;13.060;2022-08-19T17:24:26;21.30;99.90
3017;DHT22;1518;52.408;13.060;2022-08-19T17:27:17;21.30;99.90
3017;DHT22;1518;52.408;13.060;2022-08-19T17:30:06;21.20;99.90
3017;DHT22;1518;52.408;13.060;2022-08-19T17:32:54;21.20;99.90
3017;DHT22;1518;52.408;13.060;2022-08-19T17:35:43;21.10;99.90
3017;DHT22;1518;52.408;13.060;2022-08-19T17:38:33;21.00;99.90
3017;DHT22;1518;52.408;13.060;2022-08-19T17:41:23;20.80;99.90
3017;DHT22;1518;52.408;13.060;2022-08-19T17:44:12;20.60;99.90
3017;DHT22;1518;52.408;13.060;2022-08-19T17:47:01;20.60;99.90
3017;DHT22;1518;52.408;13.060;2022-08-19T17:49:50;20.60;99.90
3017;DHT22;1518;52.408;13.060;2022-08-19T17:52:39;20.50;99.90
3017;DHT22;1518;52.408;13.060;2022-08-19T17:55:27;20.50;99.90
3017;DHT22;1518;52.408;13.060;2022-08-19T17:58:16;20.50;99.90
3017;DHT22;1518;52.408;13.060;2022-08-19T18:01:11;20.50;99.90
3017;DHT22;1518;52.408;13.060;2022-08-19T18:04:00;20.40;99.90
3017;DHT22;1518;52.408;13.060;2022-08-19T18:06:50;20.40;99.90
3017;DHT22;1518;52.408;13.060;2022-08-19T18:09:41;20.40;99.90
3017;DHT22;1518;52.408;13.060;2022-08-19T18:12:36;20.40;99.90
3017;DHT22;1518;52.408;13.060;2022-08-19T18:15:24;20.40;99.90
3017;DHT22;1518;52.408;13.060;2022-08-19T18:18:14;20.40;99.90
3017;DHT22;1518;52.408;13.060;2022-08-19T18:21:02;20.40;99.90